createdAt,value
2023-04-15T00:00:01.538Z,136.64
2023-04-15T00:01:01.501Z,134.17
2023-04-15T00:02:01.636Z,134.75
2023-04-15T00:03:01.653Z,134.25
2023-04-15T00:04:01.589Z,131.16
2023-04-15T00:05:01.469Z,129.22
2023-04-15T00:06:01.512Z,127.25
2023-04-15T00:07:01.580Z,125.28
2023-04-15T00:08:01.567Z,125.66
2023-04-15T00:09:01.816Z,124.78
2023-04-15T00:10:01.697Z,125.55
2023-04-15T00:11:01.669Z,125.73
2023-04-15T00:12:01.698Z,128.61
2023-04-15T00:13:01.721Z,132.24
2023-04-15T00:14:01.771Z,130.02
2023-04-15T00:15:01.863Z,132.90
2023-04-15T00:16:01.808Z,136.30
2023-04-15T00:17:01.912Z,131.49
2023-04-15T00:18:01.908Z,133.23
2023-04-15T00:19:02.124Z,132.65
2023-04-15T00:20:01.948Z,136.04
2023-04-15T00:21:01.994Z,135.86
2023-04-15T00:22:02.032Z,137.18
2023-04-15T00:23:02.064Z,137.20
2023-04-15T00:24:02.127Z,137.56
2023-04-15T00:25:02.135Z,138.05
2023-04-15T00:26:02.248Z,140.47
2023-04-15T00:27:02.191Z,140.84
2023-04-15T00:28:02.212Z,141.46
2023-04-15T00:29:02.416Z,146.43
2023-04-15T00:30:02.279Z,142.01
2023-04-15T00:31:02.459Z,141.81
2023-04-15T00:32:02.360Z,143.29
2023-04-15T00:33:02.419Z,144.51
2023-04-15T00:34:02.417Z,144.74
2023-04-15T00:35:02.451Z,144.43
2023-04-15T00:36:02.489Z,143.52
2023-04-15T00:37:02.518Z,144.29
2023-04-15T00:38:02.549Z,145.38
2023-04-15T00:39:02.731Z,147.19
2023-04-15T00:40:02.625Z,146.08
2023-04-15T00:41:02.673Z,146.90
2023-04-15T00:42:02.710Z,149.39
2023-04-15T00:43:02.752Z,148.30
2023-04-15T00:44:02.786Z,145.85
2023-04-15T00:45:02.799Z,148.34
2023-04-15T00:46:02.877Z,145.47
2023-04-15T00:47:02.876Z,144.86
2023-04-15T00:48:02.915Z,143.39
2023-04-15T00:49:02.971Z,137.02
2023-04-15T00:50:02.985Z,132.62
2023-04-15T00:51:03.011Z,126.35
2023-04-15T00:52:03.034Z,121.17
2023-04-15T00:53:03.083Z,120.30
2023-04-15T00:54:03.212Z,115.38
2023-04-15T00:55:03.166Z,113.31
2023-04-15T00:56:03.191Z,115.33
2023-04-15T00:57:03.221Z,114.93
2023-04-15T00:58:03.256Z,118.50
2023-04-15T00:59:03.284Z,119.54
2023-04-15T01:00:03.328Z,120.85
2023-04-15T01:01:03.354Z,114.22
2023-04-15T01:02:03.454Z,111.03
2023-04-15T01:03:03.498Z,104.33
2023-04-15T01:04:03.610Z,102.36
2023-04-15T01:05:03.496Z,101.44
2023-04-15T01:06:04.152Z,101.55
2023-04-15T01:07:03.561Z,100.54
2023-04-15T01:08:03.594Z,100.23
2023-04-15T01:09:03.838Z,101.42
2023-04-15T01:10:03.649Z,97.84
2023-04-15T01:11:03.748Z,96.30
2023-04-15T01:12:03.712Z,107.23
2023-04-15T01:13:03.790Z,103.72
2023-04-15T01:14:03.783Z,93.35
2023-04-15T01:15:03.828Z,85.65
2023-04-15T01:16:03.987Z,81.95
2023-04-15T01:17:03.890Z,82.03
2023-04-15T01:18:03.964Z,83.05
2023-04-15T01:19:03.966Z,90.17
2023-04-15T01:20:04.000Z,90.46
2023-04-15T01:21:04.027Z,93.48
2023-04-15T01:22:04.168Z,103.96
2023-04-15T01:23:04.103Z,105.19
2023-04-15T01:24:04.143Z,101.10
2023-04-15T01:25:04.160Z,95.00
2023-04-15T01:26:04.185Z,82.31
2023-04-15T01:27:04.240Z,78.10
2023-04-15T01:28:04.266Z,75.31
2023-04-15T01:29:04.298Z,73.75
2023-04-15T01:30:04.352Z,84.23
2023-04-15T01:31:04.402Z,84.92
2023-04-15T01:32:04.425Z,82.86
2023-04-15T01:33:04.534Z,83.50
2023-04-15T01:34:04.498Z,81.79
2023-04-15T01:35:04.519Z,82.91
2023-04-15T01:36:04.555Z,95.59
2023-04-15T01:37:04.600Z,90.61
2023-04-15T01:38:04.720Z,79.26
2023-04-15T01:39:04.668Z,70.99
2023-04-15T01:40:04.701Z,70.45
2023-04-15T01:41:04.725Z,68.26
2023-04-15T01:42:04.770Z,64.55
2023-04-15T01:43:04.800Z,61.94
2023-04-15T01:44:04.844Z,61.73
2023-04-15T01:45:04.891Z,59.03
2023-04-15T01:46:04.930Z,57.22
2023-04-15T01:47:04.994Z,70.34
2023-04-15T01:48:04.991Z,72.35
2023-04-15T01:49:05.033Z,67.32
2023-04-15T01:50:05.082Z,60.37
2023-04-15T01:51:05.103Z,61.64
2023-04-15T01:52:05.138Z,51.46
2023-04-15T01:53:05.196Z,52.42
2023-04-15T01:54:05.208Z,58.09
2023-04-15T01:55:05.259Z,58.48
2023-04-15T01:56:05.302Z,55.07
2023-04-15T01:57:05.324Z,56.91
2023-04-15T01:58:05.364Z,58.43
2023-04-15T01:59:05.429Z,54.69
2023-04-15T02:00:05.552Z,54.61
2023-04-15T02:01:05.544Z,57.45
2023-04-15T02:02:05.592Z,50.28
2023-04-15T02:03:05.633Z,42.67
2023-04-15T02:04:05.664Z,40.43
2023-04-15T02:05:05.679Z,40.52
2023-04-15T02:06:05.706Z,47.46
2023-04-15T02:07:05.745Z,58.26
2023-04-15T02:08:05.788Z,57.85
2023-04-15T02:09:05.828Z,52.16
2023-04-15T02:10:05.880Z,59.75
2023-04-15T02:11:05.915Z,61.16
2023-04-15T02:12:05.958Z,59.21
2023-04-15T02:13:05.961Z,60.06
2023-04-15T02:14:06.018Z,48.99
2023-04-15T02:15:06.045Z,40.23
2023-04-15T02:16:06.151Z,36.93
2023-04-15T02:17:06.130Z,35.87
2023-04-15T02:18:06.173Z,46.56
2023-04-15T02:19:06.229Z,45.96
2023-04-15T02:20:06.247Z,42.35
2023-04-15T02:21:06.297Z,47.23
2023-04-15T02:22:06.327Z,41.80
2023-04-15T02:23:06.460Z,34.80
2023-04-15T02:24:06.456Z,37.12
2023-04-15T02:25:06.469Z,32.64
2023-04-15T02:26:06.523Z,31.17
2023-04-15T02:27:06.547Z,27.53
2023-04-15T02:28:06.640Z,25.60
2023-04-15T02:29:06.632Z,33.87
2023-04-15T02:30:06.695Z,36.35
2023-04-15T02:31:06.711Z,33.22
2023-04-15T02:32:06.889Z,40.63
2023-04-15T02:33:06.794Z,37.95
2023-04-15T02:34:06.861Z,45.72
2023-04-15T02:35:06.903Z,44.89
2023-04-15T02:36:06.928Z,46.14
2023-04-15T02:37:06.978Z,37.96
2023-04-15T02:38:07.020Z,28.30
2023-04-15T02:39:07.073Z,23.77
2023-04-15T02:40:07.123Z,27.39
2023-04-15T02:41:07.143Z,30.39
2023-04-15T02:42:07.193Z,35.44
2023-04-15T02:43:07.243Z,35.52
2023-04-15T02:44:07.270Z,45.45
2023-04-15T02:45:07.404Z,43.30
2023-04-15T02:46:07.411Z,46.48
2023-04-15T02:47:07.424Z,42.72
2023-04-15T02:48:07.458Z,41.03
2023-04-15T02:49:07.483Z,39.74
2023-04-15T02:50:07.524Z,28.00
2023-04-15T02:51:07.564Z,28.63
2023-04-15T02:52:07.620Z,25.72
2023-04-15T02:53:07.688Z,29.26
2023-04-15T02:54:07.691Z,35.06
2023-04-15T02:55:07.759Z,46.04
2023-04-15T02:56:07.771Z,52.19
2023-04-15T02:57:07.817Z,46.42
2023-04-15T02:58:07.852Z,43.56
2023-04-15T02:59:07.912Z,38.16
2023-04-15T03:00:07.946Z,30.60
2023-04-15T03:01:08.017Z,27.76
2023-04-15T03:02:08.070Z,26.12
2023-04-15T03:03:08.235Z,25.86
2023-04-15T03:04:08.211Z,24.62
2023-04-15T03:05:08.177Z,37.16
2023-04-15T03:06:08.240Z,44.75
2023-04-15T03:07:08.252Z,43.86
2023-04-15T03:08:08.411Z,38.35
2023-04-15T03:09:08.356Z,42.18
2023-04-15T03:10:08.404Z,39.57
2023-04-15T03:11:08.482Z,43.17
2023-04-15T03:12:08.474Z,46.62
2023-04-15T03:13:08.520Z,41.40
2023-04-15T03:14:08.586Z,33.49
2023-04-15T03:15:08.625Z,30.85
2023-04-15T03:16:08.674Z,28.81
2023-04-15T03:17:08.709Z,35.42
2023-04-15T03:18:08.779Z,36.43
2023-04-15T03:19:08.776Z,49.17
2023-04-15T03:20:08.864Z,52.82
2023-04-15T03:21:08.884Z,53.15
2023-04-15T03:22:08.914Z,46.81
2023-04-15T03:23:08.995Z,48.37
2023-04-15T03:24:09.005Z,53.72
2023-04-15T03:25:09.048Z,56.52
2023-04-15T03:26:09.087Z,43.42
2023-04-15T03:27:09.133Z,38.76
2023-04-15T03:28:09.168Z,30.36
2023-04-15T03:29:09.204Z,34.74
2023-04-15T03:30:09.358Z,43.38
2023-04-15T03:31:09.342Z,45.01
2023-04-15T03:32:09.347Z,49.57
2023-04-15T03:33:09.404Z,48.48
2023-04-15T03:34:09.421Z,43.69
2023-04-15T03:35:09.496Z,45.37
2023-04-15T03:36:09.535Z,53.42
2023-04-15T03:37:09.556Z,58.95
2023-04-15T03:38:09.602Z,49.91
2023-04-15T03:39:09.686Z,41.40
2023-04-15T03:40:09.718Z,35.20
2023-04-15T03:41:09.747Z,31.23
2023-04-15T03:42:09.789Z,27.31
2023-04-15T03:43:09.839Z,36.91
2023-04-15T03:44:09.865Z,40.98
2023-04-15T03:45:09.950Z,45.75
2023-04-15T03:46:09.979Z,49.47
2023-04-15T03:47:10.019Z,47.70
2023-04-15T03:49:10.067Z,51.88
2023-04-15T03:50:10.064Z,58.15
2023-04-15T03:51:10.054Z,55.45
2023-04-15T03:52:10.039Z,42.82
2023-04-15T03:53:10.024Z,35.50
2023-04-15T03:54:10.028Z,32.13
2023-04-15T03:55:10.015Z,35.80
2023-04-15T03:56:10.001Z,37.87
2023-04-15T03:57:10.036Z,37.97
2023-04-15T03:58:10.036Z,44.53
2023-04-15T03:59:09.996Z,41.81
2023-04-15T04:00:10.058Z,42.40
2023-04-15T04:01:10.013Z,45.92
2023-04-15T04:02:10.044Z,45.11
2023-04-15T04:03:10.258Z,59.08
2023-04-15T04:04:10.034Z,59.45
2023-04-15T04:05:10.003Z,52.28
2023-04-15T04:06:09.965Z,44.75
2023-04-15T04:07:10.031Z,33.06
2023-04-15T04:08:09.953Z,29.97
2023-04-15T04:09:09.988Z,39.21
2023-04-15T04:10:09.932Z,42.12
2023-04-15T04:11:09.921Z,41.03
2023-04-15T04:12:09.925Z,34.94
2023-04-15T04:13:09.916Z,41.73
2023-04-15T04:14:09.911Z,42.71
2023-04-15T04:15:09.907Z,44.07
2023-04-15T04:16:09.962Z,38.38
2023-04-15T04:17:09.920Z,40.21
2023-04-15T04:18:09.879Z,39.03
2023-04-15T04:19:09.861Z,35.35
2023-04-15T04:20:09.873Z,24.23
2023-04-15T04:21:09.848Z,25.38
2023-04-15T04:22:09.867Z,27.68
2023-04-15T04:23:09.844Z,35.29
2023-04-15T04:24:09.832Z,30.21
2023-04-15T04:25:09.840Z,31.59
2023-04-15T04:26:09.834Z,33.58
2023-04-15T04:27:09.829Z,32.31
2023-04-15T04:28:09.806Z,38.43
2023-04-15T04:29:09.797Z,38.95
2023-04-15T04:30:09.818Z,32.50
2023-04-15T04:31:09.792Z,28.48
2023-04-15T04:32:09.888Z,34.06
2023-04-15T04:33:09.795Z,28.01
2023-04-15T04:34:09.833Z,28.04
2023-04-15T04:35:09.883Z,27.27
2023-04-15T04:36:09.939Z,27.63
2023-04-15T04:37:09.970Z,33.10
2023-04-15T04:38:10.024Z,34.96
2023-04-15T04:39:10.098Z,32.79
2023-04-15T04:40:10.130Z,29.42
2023-04-15T04:41:10.192Z,32.67
2023-04-15T04:42:10.224Z,30.56
2023-04-15T04:43:10.295Z,33.26
2023-04-15T04:44:10.336Z,41.74
2023-04-15T04:45:10.383Z,40.52
2023-04-15T04:46:10.533Z,37.80
2023-04-15T04:47:10.487Z,37.57
2023-04-15T04:48:10.556Z,32.15
2023-04-15T04:49:10.574Z,25.80
2023-04-15T04:50:10.653Z,25.00
2023-04-15T04:51:10.677Z,35.54
2023-04-15T04:52:10.737Z,35.35
2023-04-15T04:53:10.770Z,35.82
2023-04-15T04:54:10.839Z,40.10
2023-04-15T04:55:10.877Z,42.80
2023-04-15T04:56:10.944Z,43.72
2023-04-15T04:57:10.988Z,42.03
2023-04-15T04:58:11.028Z,42.81
2023-04-15T04:59:11.083Z,40.35
2023-04-15T05:00:11.129Z,46.75
2023-04-15T05:01:11.245Z,48.16
2023-04-15T05:02:11.347Z,47.49
2023-04-15T05:03:11.396Z,44.39
2023-04-15T05:04:11.519Z,34.66
2023-04-15T05:05:11.393Z,30.81
2023-04-15T05:06:11.449Z,31.32
2023-04-15T05:07:11.488Z,34.88
2023-04-15T05:08:11.523Z,44.00
2023-04-15T05:09:11.568Z,48.83
2023-04-15T05:10:11.640Z,44.86
2023-04-15T05:11:11.685Z,41.10
2023-04-15T05:12:11.718Z,39.29
2023-04-15T05:13:11.781Z,40.14
2023-04-15T05:14:11.838Z,40.42
2023-04-15T05:15:11.870Z,36.25
2023-04-15T05:16:11.942Z,39.45
2023-04-15T05:17:11.965Z,44.69
2023-04-15T05:18:12.021Z,42.09
2023-04-15T05:19:12.064Z,46.51
2023-04-15T05:20:12.121Z,50.34
2023-04-15T05:21:12.170Z,52.77
2023-04-15T05:22:12.219Z,48.54
2023-04-15T05:23:12.276Z,46.04
2023-04-15T05:24:12.318Z,45.87
2023-04-15T05:25:12.366Z,51.14
2023-04-15T05:26:12.400Z,57.71
2023-04-15T05:27:12.452Z,53.51
2023-04-15T05:28:12.507Z,50.65
2023-04-15T05:29:12.561Z,44.93
2023-04-15T05:30:13.727Z,50.87
2023-04-15T05:31:12.667Z,56.19
2023-04-15T05:32:12.688Z,62.98
2023-04-15T05:33:12.750Z,63.40
2023-04-15T05:34:12.808Z,58.95
2023-04-15T05:35:12.832Z,55.44
2023-04-15T05:36:12.887Z,55.93
2023-04-15T05:37:12.937Z,53.94
2023-04-15T05:38:12.968Z,56.24
2023-04-15T05:39:13.026Z,63.27
2023-04-15T05:40:13.071Z,71.39
2023-04-15T05:41:13.111Z,69.55
2023-04-15T05:42:13.154Z,62.54
2023-04-15T05:43:13.200Z,71.46
2023-04-15T05:44:13.260Z,71.91
2023-04-15T05:45:13.310Z,72.12
2023-04-15T05:46:13.367Z,66.74
2023-04-15T05:47:13.398Z,64.38
2023-04-15T05:48:13.431Z,57.90
2023-04-15T05:49:13.485Z,55.47
2023-04-15T05:50:13.526Z,55.19
2023-04-15T05:51:13.578Z,62.12
2023-04-15T05:52:13.657Z,60.25
2023-04-15T05:53:13.686Z,59.57
2023-04-15T05:54:13.723Z,53.19
2023-04-15T05:55:13.788Z,51.70
2023-04-15T05:56:13.842Z,54.28
2023-04-15T05:57:13.878Z,54.31
2023-04-15T05:58:13.919Z,52.38
2023-04-15T05:59:13.972Z,51.30
2023-04-15T06:00:14.008Z,46.16
2023-04-15T06:01:14.059Z,50.18
2023-04-15T06:02:14.172Z,47.21
2023-04-15T06:03:14.245Z,55.19
2023-04-15T06:04:14.261Z,56.26
2023-04-15T06:05:14.251Z,48.53
2023-04-15T06:06:14.322Z,38.97
2023-04-15T06:07:14.349Z,36.25
2023-04-15T06:08:14.382Z,33.99
2023-04-15T06:09:14.428Z,40.52
2023-04-15T06:10:14.497Z,40.20
2023-04-15T06:11:14.534Z,40.94
2023-04-15T06:12:14.579Z,50.85
2023-04-15T06:13:14.634Z,51.55
2023-04-15T06:14:14.680Z,61.43
2023-04-15T06:15:14.727Z,63.72
2023-04-15T06:16:14.835Z,57.04
2023-04-15T06:17:14.812Z,64.61
2023-04-15T06:18:14.868Z,72.82
2023-04-15T06:19:14.966Z,68.76
2023-04-15T06:20:14.974Z,65.33
2023-04-15T06:21:15.007Z,71.73
2023-04-15T06:22:15.048Z,61.89
2023-04-15T06:23:15.110Z,53.08
2023-04-15T06:24:15.147Z,51.53
2023-04-15T06:25:15.214Z,45.14
2023-04-15T06:26:15.258Z,50.74
2023-04-15T06:27:15.312Z,65.16
2023-04-15T06:28:15.321Z,78.48
2023-04-15T06:29:15.385Z,75.21
2023-04-15T06:30:15.394Z,61.61
2023-04-15T06:31:15.469Z,52.50
2023-04-15T06:32:15.458Z,52.89
2023-04-15T06:33:15.496Z,52.47
2023-04-15T06:34:15.530Z,59.42
2023-04-15T06:35:15.562Z,56.20
2023-04-15T06:36:15.607Z,54.38
2023-04-15T06:37:15.627Z,48.05
2023-04-15T06:38:15.641Z,36.52
2023-04-15T06:39:15.680Z,36.00
2023-04-15T06:40:15.724Z,34.99
2023-04-15T06:41:15.760Z,33.09
2023-04-15T06:42:15.797Z,54.42
2023-04-15T06:43:15.858Z,61.61
2023-04-15T06:44:15.901Z,58.47
2023-04-15T06:45:15.961Z,48.45
2023-04-15T06:46:16.033Z,38.43
2023-04-15T06:47:16.078Z,29.35
2023-04-15T06:48:16.054Z,26.93
2023-04-15T06:49:16.110Z,27.15
2023-04-15T06:50:16.135Z,29.02
2023-04-15T06:51:16.185Z,47.65
2023-04-15T06:52:16.214Z,63.52
2023-04-15T06:53:16.252Z,69.26
2023-04-15T06:54:16.304Z,67.00
2023-04-15T06:55:16.355Z,56.11
2023-04-15T06:56:16.384Z,50.54
2023-04-15T06:57:16.452Z,41.29
2023-04-15T06:58:16.478Z,38.96
2023-04-15T06:59:16.519Z,37.09
2023-04-15T07:00:16.561Z,39.85
2023-04-15T07:01:16.677Z,49.97
2023-04-15T07:02:16.680Z,46.39
2023-04-15T07:03:16.759Z,41.40
2023-04-15T07:04:16.763Z,37.37
2023-04-15T07:05:16.795Z,35.74
2023-04-15T07:06:16.820Z,33.47
2023-04-15T07:07:16.851Z,41.03
2023-04-15T07:08:16.897Z,38.97
2023-04-15T07:09:16.969Z,40.09
2023-04-15T07:10:16.999Z,40.15
2023-04-15T07:11:17.013Z,36.80
2023-04-15T07:12:17.073Z,33.46
2023-04-15T07:13:17.113Z,28.53
2023-04-15T07:14:17.136Z,31.29
2023-04-15T07:15:17.178Z,43.49
2023-04-15T07:16:17.239Z,43.30
2023-04-15T07:17:17.276Z,36.91
2023-04-15T07:18:17.290Z,37.70
2023-04-15T07:19:17.336Z,32.98
2023-04-15T07:20:17.389Z,30.14
2023-04-15T07:21:17.415Z,25.09
2023-04-15T07:22:17.459Z,29.45
2023-04-15T07:23:17.517Z,25.36
2023-04-15T07:24:17.529Z,31.10
2023-04-15T07:25:17.589Z,31.88
2023-04-15T07:26:17.615Z,29.62
2023-04-15T07:27:17.665Z,29.10
2023-04-15T07:28:17.685Z,26.52
2023-04-15T07:29:17.744Z,26.19
2023-04-15T07:30:17.760Z,25.88
2023-04-15T07:31:17.858Z,26.40
2023-04-15T07:32:17.835Z,25.75
2023-04-15T07:33:17.928Z,30.11
2023-04-15T07:34:17.905Z,31.51
2023-04-15T07:35:17.939Z,30.08
2023-04-15T07:36:17.985Z,26.23
2023-04-15T07:37:18.016Z,31.18
2023-04-15T07:38:18.049Z,34.48
2023-04-15T07:39:18.098Z,27.98
2023-04-15T07:40:18.114Z,25.00
2023-04-15T07:41:18.137Z,27.34
2023-04-15T07:42:18.190Z,26.91
2023-04-15T07:43:18.208Z,28.89
2023-04-15T07:44:18.239Z,30.85
2023-04-15T07:45:18.286Z,27.11
2023-04-15T07:46:18.345Z,27.87
2023-04-15T07:47:18.409Z,26.09
2023-04-15T07:48:18.368Z,25.40
2023-04-15T07:49:18.408Z,28.88
2023-04-15T07:50:18.440Z,25.84
2023-04-15T07:51:18.464Z,25.18
2023-04-15T07:52:18.514Z,26.21
2023-04-15T07:53:18.557Z,29.24
2023-04-15T07:54:18.562Z,28.13
2023-04-15T07:55:18.591Z,28.69
2023-04-15T07:56:18.621Z,26.52
2023-04-15T07:57:18.672Z,27.47
2023-04-15T07:58:18.690Z,26.89
2023-04-15T07:59:18.728Z,25.34
2023-04-15T08:00:18.748Z,26.45
2023-04-15T08:01:18.758Z,26.80
2023-04-15T08:02:18.895Z,32.52
2023-04-15T08:03:18.913Z,34.33
2023-04-15T08:04:19.046Z,35.53
2023-04-15T08:05:19.060Z,30.94
2023-04-15T08:06:18.948Z,31.19
2023-04-15T08:07:18.992Z,32.25
2023-04-15T08:08:19.009Z,34.92
2023-04-15T08:09:19.027Z,33.77
2023-04-15T08:10:19.076Z,34.84
2023-04-15T08:11:19.102Z,29.87
2023-04-15T08:12:19.147Z,28.63
2023-04-15T08:13:19.191Z,29.93
2023-04-15T08:14:19.218Z,32.94
2023-04-15T08:15:19.234Z,31.07
2023-04-15T08:16:19.332Z,31.16
2023-04-15T08:17:19.353Z,30.34
2023-04-15T08:18:19.356Z,27.26
2023-04-15T08:19:19.367Z,35.28
2023-04-15T08:20:19.409Z,34.85
2023-04-15T08:21:19.445Z,30.43
2023-04-15T08:22:21.180Z,30.99
2023-04-15T08:23:19.523Z,29.69
2023-04-15T08:24:19.571Z,27.55
2023-04-15T08:25:19.609Z,26.61
2023-04-15T08:26:19.621Z,29.43
2023-04-15T08:27:19.671Z,32.11
2023-04-15T08:28:19.688Z,32.74
2023-04-15T08:29:19.711Z,28.17
2023-04-15T08:30:19.778Z,29.11
2023-04-15T08:31:19.852Z,31.29
2023-04-15T08:32:19.863Z,34.87
2023-04-15T08:33:19.864Z,31.75
2023-04-15T08:34:19.889Z,29.02
2023-04-15T08:35:19.936Z,26.46
2023-04-15T08:36:19.964Z,25.94
2023-04-15T08:37:19.969Z,29.86
2023-04-15T08:38:20.022Z,26.98
2023-04-15T08:39:20.043Z,27.08
2023-04-15T08:40:20.106Z,31.72
2023-04-15T08:41:20.131Z,35.78
2023-04-15T08:42:20.125Z,43.02
2023-04-15T08:43:20.163Z,49.00
2023-04-15T08:44:20.206Z,43.57
2023-04-15T08:45:20.231Z,42.71
2023-04-15T08:46:20.265Z,35.88
2023-04-15T08:47:20.283Z,30.85
2023-04-15T08:48:20.307Z,33.92
2023-04-15T08:49:20.348Z,33.62
2023-04-15T08:50:20.378Z,30.39
2023-04-15T08:51:20.395Z,31.44
2023-04-15T08:52:20.430Z,30.96
2023-04-15T08:53:20.465Z,35.19
2023-04-15T08:54:20.478Z,36.40
2023-04-15T08:55:20.522Z,35.29
2023-04-15T08:56:20.608Z,36.83
2023-04-15T08:57:20.556Z,36.51
2023-04-15T08:58:20.602Z,32.24
2023-04-15T08:59:20.632Z,32.81
2023-04-15T09:00:20.660Z,28.49
2023-04-15T09:01:20.720Z,32.19
2023-04-15T09:02:20.767Z,33.02
2023-04-15T09:03:20.805Z,30.20
2023-04-15T09:04:20.817Z,33.78
2023-04-15T09:05:20.800Z,48.28
2023-04-15T09:06:20.811Z,40.49
2023-04-15T09:07:20.836Z,42.44
2023-04-15T09:08:20.923Z,33.00
2023-04-15T09:09:20.891Z,34.01
2023-04-15T09:10:20.917Z,32.72
2023-04-15T09:11:20.949Z,32.18
2023-04-15T09:12:20.976Z,41.74
2023-04-15T09:13:20.987Z,38.78
2023-04-15T09:14:21.045Z,40.49
2023-04-15T09:15:21.065Z,33.61
2023-04-15T09:16:21.096Z,34.60
2023-04-15T09:17:21.132Z,34.19
2023-04-15T09:18:21.146Z,43.44
2023-04-15T09:19:21.149Z,35.76
2023-04-15T09:20:21.159Z,37.96
2023-04-15T09:21:21.183Z,39.19
2023-04-15T09:22:21.199Z,33.08
2023-04-15T09:23:21.219Z,29.98
2023-04-15T09:24:21.254Z,26.02
2023-04-15T09:25:21.280Z,27.65
2023-04-15T09:26:21.289Z,35.17
2023-04-15T09:27:21.290Z,36.06
2023-04-15T09:28:21.330Z,37.76
2023-04-15T09:29:21.337Z,40.00
2023-04-15T09:30:21.354Z,34.13
2023-04-15T09:31:21.475Z,34.32
2023-04-15T09:32:21.409Z,38.02
2023-04-15T09:33:21.396Z,35.97
2023-04-15T09:34:21.426Z,32.65
2023-04-15T09:35:21.464Z,31.94
2023-04-15T09:36:21.454Z,34.57
2023-04-15T09:37:32.074Z,34.13
2023-04-15T09:38:22.477Z,34.29
2023-04-15T09:39:21.522Z,34.93
2023-04-15T09:40:21.459Z,35.55
2023-04-15T09:41:21.448Z,36.44
2023-04-15T09:42:21.441Z,39.40
2023-04-15T09:43:21.457Z,32.62
2023-04-15T09:44:21.430Z,35.37
2023-04-15T09:45:21.437Z,38.81
2023-04-15T09:46:21.470Z,42.24
2023-04-15T09:47:21.478Z,34.80
2023-04-15T09:48:21.410Z,35.89
2023-04-15T09:49:21.430Z,32.16
2023-04-15T09:50:21.409Z,28.31
2023-04-15T09:51:21.393Z,33.02
2023-04-15T09:52:21.391Z,24.98
2023-04-15T09:53:21.396Z,35.28
2023-04-15T09:54:21.365Z,41.44
2023-04-15T09:55:21.356Z,35.04
2023-04-15T09:56:21.365Z,35.23
2023-04-15T09:57:21.348Z,35.14
2023-04-15T09:58:21.343Z,33.92
2023-04-15T09:59:21.872Z,31.61
2023-04-15T10:00:21.338Z,31.15
2023-04-15T10:01:21.375Z,35.60
2023-04-15T10:02:21.449Z,28.57
2023-04-15T10:03:21.542Z,26.74
2023-04-15T10:04:21.537Z,26.63
2023-04-15T10:05:21.392Z,28.41
2023-04-15T10:06:21.412Z,29.54
2023-04-15T10:07:21.421Z,26.19
2023-04-15T10:08:21.465Z,25.00
2023-04-15T10:09:21.460Z,31.42
2023-04-15T10:10:21.444Z,41.40
2023-04-15T10:11:21.452Z,48.26
2023-04-15T10:12:21.464Z,41.14
2023-04-15T10:13:21.492Z,31.72
2023-04-15T10:14:21.513Z,32.01
2023-04-15T10:15:21.508Z,25.54
2023-04-15T10:16:21.576Z,29.27
2023-04-15T10:17:21.571Z,33.67
2023-04-15T10:18:21.541Z,37.61
2023-04-15T10:19:21.539Z,39.28
2023-04-15T10:20:21.550Z,34.74
2023-04-15T10:21:21.579Z,31.87
2023-04-15T10:22:21.588Z,33.55
2023-04-15T10:23:21.595Z,40.04
2023-04-15T10:24:21.608Z,54.03
2023-04-15T10:25:21.616Z,48.02
2023-04-15T10:26:21.621Z,46.61
2023-04-15T10:27:21.637Z,50.76
2023-04-15T10:28:21.656Z,41.66
2023-04-15T10:29:21.652Z,40.04
2023-04-15T10:30:21.664Z,45.14
2023-04-15T10:31:21.719Z,30.68
2023-04-15T10:32:21.707Z,43.32
2023-04-15T10:33:21.671Z,41.29
2023-04-15T10:34:21.686Z,43.98
2023-04-15T10:35:21.701Z,30.44
2023-04-15T10:36:21.717Z,26.07
2023-04-15T10:37:21.721Z,41.94
2023-04-15T10:38:21.750Z,32.69
2023-04-15T10:39:21.733Z,40.45
2023-04-15T10:40:21.736Z,35.57
2023-04-15T10:41:21.960Z,27.06
2023-04-15T10:42:21.745Z,26.89
2023-04-15T10:43:21.765Z,28.90
2023-04-15T10:44:21.780Z,32.34
2023-04-15T10:45:21.797Z,27.87
2023-04-15T10:46:21.837Z,29.02
2023-04-15T10:47:21.942Z,21.81
2023-04-15T10:48:21.808Z,31.49
2023-04-15T10:49:21.822Z,54.54
2023-04-15T10:50:21.814Z,57.85
2023-04-15T10:51:21.819Z,51.72
2023-04-15T10:52:21.848Z,44.56
2023-04-15T10:53:21.880Z,41.68
2023-04-15T10:54:21.856Z,36.64
2023-04-15T10:55:21.899Z,55.45
2023-04-15T10:56:21.895Z,46.06
2023-04-15T10:57:21.906Z,48.59
2023-04-15T10:58:21.920Z,44.28
2023-04-15T10:59:22.455Z,33.56
2023-04-15T11:00:21.944Z,31.19
2023-04-15T11:01:21.954Z,30.19
2023-04-15T11:02:22.079Z,29.43
2023-04-15T11:03:22.021Z,32.73
2023-04-15T11:04:22.043Z,32.36
2023-04-15T11:05:21.999Z,32.14
2023-04-15T11:06:22.013Z,27.25
2023-04-15T11:07:22.026Z,29.81
2023-04-15T11:08:22.027Z,27.27
2023-04-15T11:09:22.049Z,30.56
2023-04-15T11:10:22.040Z,44.28
2023-04-15T11:11:22.051Z,45.87
2023-04-15T11:12:22.077Z,53.40
2023-04-15T11:13:22.073Z,60.75
2023-04-15T11:14:22.090Z,61.14
2023-04-15T11:15:22.114Z,63.26
2023-04-15T11:16:22.116Z,62.40
2023-04-15T11:17:22.172Z,65.40
2023-04-15T11:18:22.133Z,66.93
2023-04-15T11:19:22.165Z,71.70
2023-04-15T11:20:22.151Z,64.53
2023-04-15T11:21:22.137Z,70.97
2023-04-15T11:22:22.162Z,70.83
2023-04-15T11:23:22.169Z,76.42
2023-04-15T11:24:22.188Z,75.86
2023-04-15T11:25:22.199Z,76.16
2023-04-15T11:26:22.178Z,74.18
2023-04-15T11:27:22.216Z,76.38
2023-04-15T11:28:22.202Z,81.52
2023-04-15T11:29:22.228Z,84.27
2023-04-15T11:30:22.236Z,77.69
2023-04-15T11:31:22.253Z,81.84
2023-04-15T11:32:22.242Z,80.56
2023-04-15T11:33:22.241Z,81.62
2023-04-15T11:34:22.258Z,80.83
2023-04-15T11:35:22.271Z,76.09
2023-04-15T11:36:22.252Z,80.19
2023-04-15T11:37:22.274Z,84.68
2023-04-15T11:38:22.299Z,75.86
2023-04-15T11:39:22.287Z,79.58
2023-04-15T11:40:22.308Z,81.30
2023-04-15T11:41:22.324Z,84.39
2023-04-15T11:42:22.306Z,80.58
2023-04-15T11:43:22.315Z,81.92
2023-04-15T11:44:22.306Z,80.28
2023-04-15T11:45:22.332Z,76.66
2023-04-15T11:46:22.382Z,74.53
2023-04-15T11:47:22.406Z,79.75
2023-04-15T11:48:22.362Z,77.81
2023-04-15T11:49:22.352Z,80.80
2023-04-15T11:50:22.390Z,76.48
2023-04-15T11:51:22.374Z,79.25
2023-04-15T11:52:22.388Z,77.93
2023-04-15T11:53:22.409Z,73.90
2023-04-15T11:54:22.413Z,73.56
2023-04-15T11:55:22.427Z,76.13
2023-04-15T11:56:22.423Z,80.38
2023-04-15T11:57:22.440Z,71.60
2023-04-15T11:58:22.452Z,65.24
2023-04-15T11:59:22.996Z,73.73
2023-04-15T12:00:22.454Z,75.46
2023-04-15T12:01:22.459Z,72.38
2023-04-15T12:02:22.614Z,76.15
2023-04-15T12:03:22.730Z,72.97
2023-04-15T12:04:25.167Z,69.07
2023-04-15T12:05:22.589Z,72.68
2023-04-15T12:06:22.521Z,75.34
2023-04-15T12:07:22.497Z,74.80
2023-04-15T12:08:22.480Z,75.92
2023-04-15T12:09:22.476Z,72.90
2023-04-15T12:10:22.454Z,70.80
2023-04-15T12:11:22.468Z,69.41
2023-04-15T12:12:22.457Z,69.13
2023-04-15T12:13:22.444Z,73.65
2023-04-15T12:14:22.425Z,75.25
2023-04-15T12:15:22.419Z,71.72
2023-04-15T12:16:22.438Z,69.02
2023-04-15T12:17:22.417Z,69.93
2023-04-15T12:18:22.420Z,68.54
2023-04-15T12:19:22.409Z,73.88
2023-04-15T12:20:22.392Z,75.14
2023-04-15T12:21:22.396Z,69.72
2023-04-15T12:22:22.389Z,69.75
2023-04-15T12:23:22.364Z,67.76
2023-04-15T12:24:22.359Z,70.06
2023-04-15T12:25:22.371Z,71.52
2023-04-15T12:26:22.364Z,74.91
2023-04-15T12:27:22.346Z,78.74
2023-04-15T12:28:22.341Z,77.47
2023-04-15T12:29:22.370Z,80.99
2023-04-15T12:30:22.354Z,80.44
2023-04-15T12:31:22.351Z,89.49
2023-04-15T12:32:22.337Z,87.57
2023-04-15T12:33:22.316Z,84.09
2023-04-15T12:34:22.297Z,91.01
2023-04-15T12:35:22.307Z,88.84
2023-04-15T12:36:22.277Z,89.57
2023-04-15T12:37:22.300Z,91.44
2023-04-15T12:38:22.283Z,83.73
2023-04-15T12:39:22.268Z,83.56
2023-04-15T12:40:22.264Z,86.90
2023-04-15T12:41:22.264Z,81.70
2023-04-15T12:42:22.256Z,83.11
2023-04-15T12:43:22.253Z,85.41
2023-04-15T12:44:22.324Z,84.55
2023-04-15T12:45:22.220Z,83.55
2023-04-15T12:46:22.242Z,83.79
2023-04-15T12:47:22.218Z,88.62
2023-04-15T12:48:22.218Z,84.90
2023-04-15T12:49:22.202Z,82.49
2023-04-15T12:50:22.202Z,87.06
2023-04-15T12:51:22.177Z,89.61